Time;durP1;ratioP1;P1;durP2;ratioP2;P2;SDS_P1;SDS_P2;PMS_P1;PMS_P2;Temp;Humidity;BMP_temperature;BMP_pressure;BME280_temperature;BME280_humidity;BME280_pressure;Samples;Min_cycle;Max_cycle;Signal;HPM_P1;HPM_P2
2021/07/05 00:00:12;;;;;;;11.47;6.77;;;;;;;23.06;43.22;94636.19;5095964;28;20249;-71
2021/07/05 00:02:40;;;;;;;11.57;7.20;;;;;;;23.04;43.07;94633.06;5084152;28;20271;-74
2021/07/05 00:05:09;;;;;;;9.73;7.30;;;;;;;22.94;43.47;94634.31;5085064;28;20213;-72
2021/07/05 00:07:37;;;;;;;9.07;7.43;;;;;;;22.80;43.59;94625.13;5073286;28;20226;-72
2021/07/05 00:10:06;;;;;;;8.80;6.50;;;;;;;23.01;43.37;94631.84;5069363;28;20219;-71
2021/07/05 00:12:33;;;;;;;9.63;6.93;;;;;;;23.04;43.37;94631.19;5073326;28;20200;-73
2021/07/05 00:15:01;;;;;;;10.00;6.93;;;;;;;23.09;42.99;94622.91;5082259;28;20201;-71
2021/07/05 00:17:28;;;;;;;10.07;7.60;;;;;;;23.02;43.19;94611.25;5096406;28;20260;-71
2021/07/05 00:19:55;;;;;;;10.87;7.97;;;;;;;23.12;42.91;94622.22;5095543;28;20233;-73
2021/07/05 00:22:22;;;;;;;8.23;6.67;;;;;;;22.95;43.23;94622.53;5095699;28;20187;-73
2021/07/05 00:24:48;;;;;;;13.03;6.87;;;;;;;22.82;43.20;94623.69;5095543;28;20570;-71
2021/07/05 00:27:15;;;;;;;12.17;7.50;;;;;;;22.82;43.53;94602.31;5095934;28;20187;-72
2021/07/05 00:29:42;;;;;;;9.80;6.77;;;;;;;22.88;43.26;94614.28;5095699;28;20741;-72
2021/07/05 00:32:09;;;;;;;9.93;7.37;;;;;;;22.94;43.22;94601.47;5096189;28;20618;-72
2021/07/05 00:34:36;;;;;;;9.30;6.93;;;;;;;22.93;43.48;94603.38;5096911;28;20278;-73
2021/07/05 00:37:03;;;;;;;8.73;7.10;;;;;;;22.65;44.56;94601.78;5095598;28;20195;-71
2021/07/05 00:39:30;;;;;;;8.50;6.50;;;;;;;22.63;44.92;94599.44;5096397;28;20191;-72
2021/07/05 00:41:57;;;;;;;8.07;6.27;;;;;;;22.56;44.60;94593.13;5097377;28;20195;-72
2021/07/05 00:44:24;;;;;;;8.60;6.50;;;;;;;22.37;45.44;94600.94;5089237;28;20202;-72
2021/07/05 00:46:51;;;;;;;8.57;6.47;;;;;;;22.36;44.99;94594.81;5075943;28;20204;-73
2021/07/05 00:49:19;;;;;;;11.53;6.67;;;;;;;22.58;44.67;94589.00;5080380;28;20677;-71
2021/07/05 00:51:46;;;;;;;8.67;6.40;;;;;;;22.35;45.28;94593.25;5096013;28;20202;-73
2021/07/05 00:54:13;;;;;;;7.47;6.03;;;;;;;22.51;44.44;94591.44;5080656;28;20282;-73
2021/07/05 00:56:41;;;;;;;6.90;5.77;;;;;;;22.48;44.46;94594.78;5085914;28;20653;-72
2021/07/05 00:59:10;;;;;;;9.27;5.90;;;;;;;22.56;44.24;94596.56;5085219;28;20234;-73
2021/07/05 01:01:37;;;;;;;7.30;5.57;;;;;;;22.23;45.04;94605.81;5080915;28;20290;-71
2021/07/05 01:04:05;;;;;;;6.40;5.80;;;;;;;22.34;44.50;94602.38;5091352;28;20883;-71
2021/07/05 01:06:31;;;;;;;8.27;5.70;;;;;;;22.33;44.49;94600.81;5092419;28;20206;-71
2021/07/05 01:08:59;;;;;;;8.07;6.13;;;;;;;22.25;44.55;94591.03;5079007;28;20696;-70
2021/07/05 01:11:26;;;;;;;7.43;6.23;;;;;;;22.35;44.35;94598.59;5085962;28;20278;-72
2021/07/05 01:13:53;;;;;;;7.00;6.20;;;;;;;22.28;44.59;94593.03;5084068;28;20210;-70
2021/07/05 01:16:20;;;;;;;8.17;5.97;;;;;;;22.23;44.85;94603.94;5091744;28;20196;-70
2021/07/05 01:18:47;;;;;;;6.67;5.87;;;;;;;22.28;44.82;94605.59;5092428;28;20209;-69
2021/07/05 01:21:14;;;;;;;14.20;5.97;;;;;;;22.18;44.36;94596.16;5092131;28;20595;-72
2021/07/05 01:23:41;;;;;;;7.50;5.73;;;;;;;22.23;44.32;94595.91;5092131;28;20619;-73
2021/07/05 01:26:08;;;;;;;8.33;6.40;;;;;;;22.17;43.91;94602.59;5091730;28;20194;-73
2021/07/05 01:28:35;;;;;;;7.50;6.40;;;;;;;22.07;44.05;94595.84;5091672;28;20630;-72
2021/07/05 01:31:02;;;;;;;9.73;6.80;;;;;;;21.79;44.55;94599.47;5091044;28;20270;-72
2021/07/05 01:33:29;;;;;;;8.60;6.70;;;;;;;21.98;44.59;94605.84;5091842;28;20222;-70
2021/07/05 01:35:57;;;;;;;7.73;6.37;;;;;;;21.94;44.50;94601.50;5091079;28;20577;-71
2021/07/05 01:38:24;;;;;;;7.80;5.93;;;;;;;21.90;44.74;94605.94;5092022;28;20283;-71
2021/07/05 01:41:02;;;;;;;8.30;6.43;;;;;;;21.78;45.15;94597.91;5091189;28;20199;-73
2021/07/05 01:43:30;;;;;;;8.10;6.73;;;;;;;21.65;45.98;94599.78;5078431;28;20227;-72
2021/07/05 01:45:57;;;;;;;9.40;6.87;;;;;;;21.57;45.67;94605.97;5090548;28;20552;-71
2021/07/05 01:48:26;;;;;;;9.73;6.87;;;;;;;21.54;46.11;94601.31;5091287;28;20199;-70
2021/07/05 01:50:54;;;;;;;10.97;6.30;;;;;;;21.51;46.00;94609.19;5090878;28;20261;-73
2021/07/05 01:53:21;;;;;;;11.73;7.50;;;;;;;21.41;46.21;94607.72;5091601;28;20201;-71
2021/07/05 01:55:48;;;;;;;10.00;7.37;;;;;;;21.35;46.63;94601.03;5076486;28;20208;-72
2021/07/05 01:58:15;;;;;;;9.97;7.40;;;;;;;21.26;46.20;94578.28;5092061;28;20750;-71
2021/07/05 02:00:46;;;;;;;10.17;7.87;;;;;;;21.23;46.82;94600.22;5089715;28;20201;-72
2021/07/05 02:03:14;;;;;;;9.13;7.10;;;;;;;21.30;46.35;94603.13;5083544;28;20249;-72
2021/07/05 02:05:42;;;;;;;7.57;6.80;;;;;;;21.33;45.74;94594.50;5070961;28;20552;-73
2021/07/05 02:08:11;;;;;;;7.43;6.30;;;;;;;21.19;45.52;94594.78;5070855;28;20191;-72
2021/07/05 02:10:39;;;;;;;6.67;5.97;;;;;;;21.30;45.63;94605.78;5083581;28;20222;-72
2021/07/05 02:13:10;;;;;;;6.73;6.10;;;;;;;21.27;45.28;94598.47;5090948;28;20259;-74
2021/07/05 02:15:39;;;;;;;6.80;6.00;;;;;;;21.21;45.18;94602.44;5090223;28;20449;-73
2021/07/05 02:18:06;;;;;;;7.53;6.37;;;;;;;21.09;45.42;94592.53;5086677;28;20246;-73
2021/07/05 02:20:35;;;;;;;7.50;5.87;;;;;;;21.15;45.73;94607.97;5086426;28;20261;-71
2021/07/05 02:23:05;;;;;;;7.23;5.90;;;;;;;20.79;46.20;94607.81;5091396;28;20203;-72
2021/07/05 02:25:34;;;;;;;8.80;6.40;;;;;;;20.86;45.93;94602.72;5090343;28;20199;-72
2021/07/05 02:28:06;;;;;;;6.57;5.87;;;;;;;21.04;45.79;94604.16;5090487;28;20205;-72
2021/07/05 02:30:34;;;;;;;7.47;6.53;;;;;;;21.02;45.97;94601.03;5091256;28;20230;-70
2021/07/05 02:33:01;;;;;;;6.53;5.63;;;;;;;20.95;45.77;94578.66;5091005;28;20312;-70
2021/07/05 02:35:30;;;;;;;6.97;5.90;;;;;;;20.94;46.34;94599.22;5089416;28;20214;-70
2021/07/05 02:37:59;;;;;;;8.13;6.63;;;;;;;21.09;45.93;94590.63;5081856;28;20270;-70
2021/07/05 02:40:29;;;;;;;7.20;6.50;;;;;;;21.09;45.87;94595.97;5088966;28;20433;-70
2021/07/05 02:42:57;;;;;;;7.53;6.70;;;;;;;20.90;46.24;94600.19;5085511;28;20199;-72
2021/07/05 02:45:27;;;;;;;7.50;6.00;;;;;;;21.06;46.19;94601.94;5074414;28;20716;-72
2021/07/05 02:47:57;;;;;;;7.23;6.50;;;;;;;21.05;45.88;94616.38;5093556;28;20285;-72
2021/07/05 02:50:24;;;;;;;8.83;6.57;;;;;;;20.89;46.42;94595.97;5090549;28;20203;-71
2021/07/05 02:52:52;;;;;;;8.60;6.17;;;;;;;20.95;46.34;94599.97;5076576;28;20278;-72
2021/07/05 02:55:20;;;;;;;8.73;6.70;;;;;;;21.05;46.18;94605.72;5090142;28;20672;-72
2021/07/05 02:57:48;;;;;;;9.83;6.80;;;;;;;20.94;46.38;94603.75;5071397;28;20210;-72
2021/07/05 03:00:23;;;;;;;8.67;7.03;;;;;;;20.97;46.28;94608.44;5081034;28;20237;-73
2021/07/05 03:02:51;;;;;;;7.07;5.80;;;;;;;20.87;46.33;94609.63;5084191;28;20437;-72
2021/07/05 03:05:22;;;;;;;9.00;6.47;;;;;;;21.05;46.57;94611.06;5080911;28;20286;-72
2021/07/05 03:07:50;;;;;;;9.70;7.00;;;;;;;20.95;46.45;94611.41;5086465;28;20218;-68
2021/07/05 03:10:23;;;;;;;11.77;7.30;;;;;;;21.03;46.46;94602.63;5079113;28;20222;-69
2021/07/05 03:12:51;;;;;;;8.20;7.13;;;;;;;20.95;46.37;94611.41;5090277;28;20256;-71
2021/07/05 03:15:20;;;;;;;13.27;7.60;;;;;;;20.93;46.67;94602.97;5089649;28;20191;-73
2021/07/05 03:17:48;;;;;;;8.77;7.63;;;;;;;21.01;46.93;94620.03;5088411;28;20794;-71
2021/07/05 03:20:19;;;;;;;12.77;7.73;;;;;;;20.98;47.11;94610.75;5082586;28;20645;-72
2021/07/05 03:22:48;;;;;;;9.57;7.87;;;;;;;21.04;46.64;94614.81;5089592;28;20249;-70
2021/07/05 03:25:18;;;;;;;10.90;8.03;;;;;;;20.97;46.68;94619.88;5089816;28;20201;-70
2021/07/05 03:27:46;;;;;;;11.47;8.27;;;;;;;21.00;46.52;94613.91;5089559;28;20202;-68
2021/07/05 03:30:15;;;;;;;11.23;8.17;;;;;;;21.26;46.03;94618.25;5078220;28;20238;-72
2021/07/05 03:32:44;;;;;;;13.10;9.07;;;;;;;21.00;46.19;94613.91;5087543;28;20337;-71
2021/07/05 03:35:14;;;;;;;16.17;8.73;;;;;;;20.45;47.67;94613.38;5089320;28;20437;-71
2021/07/05 03:37:42;;;;;;;15.17;9.07;;;;;;;20.47;47.99;94613.84;5082277;28;20670;-70
2021/07/05 03:40:11;;;;;;;14.73;7.80;;;;;;;20.79;48.34;94613.13;5083292;28;20436;-70
2021/07/05 03:42:43;;;;;;;10.73;8.27;;;;;;;20.91;47.88;94605.19;5092074;28;20268;-71
2021/07/05 03:45:12;;;;;;;13.07;8.17;;;;;;;21.00;47.96;94605.16;5079591;28;20250;-70
2021/07/05 03:47:40;;;;;;;13.70;8.93;;;;;;;21.09;47.79;94606.63;5060571;28;21033;-71
2021/07/05 03:50:11;;;;;;;16.43;10.10;;;;;;;21.14;48.03;94597.66;5059303;28;20539;-72
2021/07/05 03:52:38;;;;;;;11.93;8.23;;;;;;;21.24;47.58;94588.47;5074385;28;20304;-71
2021/07/05 03:55:08;;;;;;;11.33;8.20;;;;;;;21.35;46.99;94593.03;5081910;28;20285;-71
2021/07/05 03:57:35;;;;;;;8.43;7.53;;;;;;;21.55;46.28;94591.44;5088868;28;20187;-74
2021/07/05 04:00:05;;;;;;;7.47;6.77;;;;;;;21.43;45.79;94599.38;5085572;28;20651;-71
2021/07/05 04:02:32;;;;;;;8.43;7.63;;;;;;;21.55;46.51;94607.44;5086052;28;20187;-68
2021/07/05 04:04:59;;;;;;;10.47;7.20;;;;;;;21.50;47.21;94616.41;5089176;28;20207;-69
2021/07/05 04:07:27;;;;;;;11.93;7.03;;;;;;;21.59;47.44;94614.44;5088818;28;20622;-68
2021/07/05 04:09:54;;;;;;;13.50;7.80;;;;;;;21.36;48.05;94610.59;5088198;28;20727;-68
2021/07/05 04:12:21;;;;;;;11.03;7.30;;;;;;;21.40;48.19;94603.50;5085265;28;20191;-72
2021/07/05 04:14:49;;;;;;;11.67;7.83;;;;;;;21.59;47.17;94602.97;5084530;28;20210;-71
2021/07/05 04:17:17;;;;;;;11.33;7.60;;;;;;;21.59;47.19;94592.31;5083472;28;20230;-67
2021/07/05 04:19:46;;;;;;;10.83;8.00;;;;;;;21.58;46.79;94593.44;5086415;28;20188;-70
2021/07/05 04:22:14;;;;;;;9.77;7.57;;;;;;;21.66;46.75;94587.22;5088779;28;20211;-67
2021/07/05 04:24:43;;;;;;;13.33;7.63;;;;;;;21.82;46.30;94590.81;5088540;28;20635;-69
2021/07/05 04:27:10;;;;;;;9.70;8.47;;;;;;;21.70;47.20;94588.09;5087787;28;20198;-70
2021/07/05 04:29:38;;;;;;;12.43;8.83;;;;;;;21.87;46.46;94583.38;5088227;28;20234;-69
2021/07/05 04:32:07;;;;;;;12.80;7.83;;;;;;;22.01;46.35;94573.16;5088601;28;20230;-69
2021/07/05 04:34:46;;;;;;;13.27;8.57;;;;;;;21.81;47.37;94578.59;5078608;28;20202;-68
2021/07/05 04:37:14;;;;;;;12.07;8.77;;;;;;;21.72;46.69;94585.88;5092613;28;20554;-66
2021/07/05 04:39:41;;;;;;;14.63;9.00;;;;;;;21.81;46.44;94583.91;5082039;28;20204;-69
2021/07/05 04:42:08;;;;;;;11.73;8.20;;;;;;;21.81;46.32;94589.25;5089051;28;20199;-72
2021/07/05 04:44:34;;;;;;;12.93;8.33;;;;;;;21.70;46.11;94586.22;5084728;28;20188;-68
2021/07/05 04:47:03;;;;;;;24.60;19.63;;;;;;;21.65;46.38;94585.66;5073102;28;20749;-69
2021/07/05 04:49:30;;;;;;;102.57;78.27;;;;;;;21.76;46.30;94586.78;5086576;28;20192;-68
2021/07/05 04:51:58;;;;;;;101.23;81.73;;;;;;;21.87;46.03;94583.38;5087865;28;20214;-70
2021/07/05 04:54:25;;;;;;;8.03;6.80;;;;;;;21.72;45.67;94589.34;5078301;28;20646;-68
2021/07/05 04:56:53;;;;;;;7.57;6.77;;;;;;;21.68;46.33;94595.66;5092485;28;20199;-70
2021/07/05 04:59:20;;;;;;;13.20;6.67;;;;;;;21.54;46.54;94597.88;5088488;28;20195;-73
2021/07/05 05:01:47;;;;;;;9.23;6.43;;;;;;;21.58;46.02;94596.09;5071932;28;20241;-69
2021/07/05 05:04:14;;;;;;;8.90;6.70;;;;;;;21.51;46.50;94595.88;5073317;28;20204;-74
2021/07/05 05:06:43;;;;;;;14.67;12.67;;;;;;;21.76;45.67;94600.13;5092171;28;20226;-69
2021/07/05 05:09:10;;;;;;;19.03;16.40;;;;;;;21.62;45.78;94594.34;5091034;28;20195;-67
2021/07/05 05:11:38;;;;;;;8.77;6.47;;;;;;;21.63;45.74;94594.00;5091905;28;20689;-65
2021/07/05 05:14:05;;;;;;;7.97;6.20;;;;;;;21.55;46.57;94591.44;5091762;28;20206;-72
2021/07/05 05:16:32;;;;;;;9.10;6.87;;;;;;;21.68;46.08;94598.31;5086548;28;20674;-67
2021/07/05 05:18:59;;;;;;;6.10;5.50;;;;;;;21.84;44.94;94599.28;5083939;28;20627;-71
2021/07/05 05:21:26;;;;;;;6.70;6.00;;;;;;;21.64;44.92;94594.78;5091716;28;20673;-68
2021/07/05 05:23:53;;;;;;;9.97;6.43;;;;;;;22.00;44.75;94581.50;5091409;28;20218;-70
2021/07/05 05:26:20;;;;;;;8.63;6.40;;;;;;;21.98;45.60;94581.03;5091161;28;20210;-70
2021/07/05 05:28:47;;;;;;;12.87;6.33;;;;;;;22.31;45.00;94587.03;5091893;28;20210;-67
2021/07/05 05:31:15;;;;;;;9.50;6.50;;;;;;;22.29;44.54;94589.25;5090729;28;20227;-67
2021/07/05 05:33:42;;;;;;;8.67;6.10;;;;;;;22.11;45.35;94593.28;5092034;28;20188;-67
2021/07/05 05:36:10;;;;;;;8.73;6.43;;;;;;;22.26;45.78;94595.28;5091686;28;20218;-67
2021/07/05 05:38:37;;;;;;;14.27;6.63;;;;;;;22.44;44.77;94590.47;5077700;28;20192;-67
2021/07/05 05:41:05;;;;;;;11.63;6.60;;;;;;;22.51;44.32;94588.78;5091425;28;20202;-66
2021/07/05 05:43:32;;;;;;;9.83;6.97;;;;;;;22.41;43.94;94596.47;5091093;28;20203;-67
2021/07/05 05:46:02;;;;;;;9.37;6.53;;;;;;;22.42;43.79;94588.13;5077209;28;20248;-67
2021/07/05 05:48:30;;;;;;;8.20;6.87;;;;;;;22.50;44.51;94584.53;5079377;28;20227;-67
2021/07/05 05:50:57;;;;;;;11.73;7.00;;;;;;;22.41;45.39;94586.56;5071120;28;20566;-66
2021/07/05 05:53:25;;;;;;;8.57;6.27;;;;;;;22.17;45.66;94589.25;5071291;28;20200;-67
2021/07/05 05:55:52;;;;;;;9.83;6.40;;;;;;;22.38;45.71;94587.25;5084778;28;20720;-68
2021/07/05 05:58:19;;;;;;;10.60;6.87;;;;;;;22.38;45.88;94586.44;5080784;28;20653;-67
2021/07/05 06:00:46;;;;;;;8.90;6.50;;;;;;;22.60;44.87;94580.66;5090606;28;20657;-67
2021/07/05 06:03:13;;;;;;;13.80;6.90;;;;;;;22.57;45.49;94574.09;5083679;28;20199;-67
2021/07/05 06:05:40;;;;;;;10.93;6.90;;;;;;;22.79;44.47;94586.94;5084571;28;20256;-67
2021/07/05 06:08:07;;;;;;;14.07;7.57;;;;;;;23.02;43.97;94590.66;5071615;28;20199;-66
2021/07/05 06:10:34;;;;;;;13.13;6.70;;;;;;;22.89;44.18;94581.13;5082753;28;20280;-67
2021/07/05 06:13:02;;;;;;;9.43;6.73;;;;;;;23.25;43.19;94587.44;5077037;28;20207;-67
2021/07/05 06:15:29;;;;;;;8.93;6.93;;;;;;;23.21;43.38;94576.63;5090801;28;20191;-66
2021/07/05 06:18:00;;;;;;;10.87;7.00;;;;;;;23.46;43.06;94569.28;5073749;28;20222;-67
2021/07/05 06:20:28;;;;;;;11.97;7.90;;;;;;;22.69;43.39;94558.03;5084998;28;20214;-67
2021/07/05 06:23:26;;;;;;;16.80;8.20;;;;;;;22.84;43.48;94557.31;5090682;28;20645;-67
2021/07/05 06:25:59;;;;;;;17.87;8.10;;;;;;;23.05;43.11;94573.94;5090754;28;20302;-67
2021/07/05 06:28:28;;;;;;;12.83;8.30;;;;;;;23.08;42.48;94548.44;5090675;28;20222;-66
2021/07/05 06:30:57;;;;;;;12.77;7.87;;;;;;;23.31;42.76;94554.78;5089407;28;20280;-68
2021/07/05 06:33:25;;;;;;;16.47;8.13;;;;;;;23.30;42.68;94552.47;5090434;28;20194;-66
2021/07/05 06:35:51;;;;;;;14.43;8.37;;;;;;;23.30;42.22;94553.25;5089862;28;20256;-66
2021/07/05 06:38:20;;;;;;;18.57;8.17;;;;;;;23.45;43.12;94559.72;5078470;28;20211;-67
2021/07/05 06:40:48;;;;;;;12.30;9.10;;;;;;;23.71;43.96;94549.28;5084508;28;20195;-66
2021/07/05 06:43:16;;;;;;;16.70;8.07;;;;;;;24.11;43.17;94544.53;5070274;28;20211;-68
2021/07/05 06:46:03;;;;;;;13.67;7.43;;;;;;;24.33;41.77;94541.19;5076114;28;20733;-67
2021/07/05 06:48:30;;;;;;;10.83;7.63;;;;;;;24.49;41.72;94539.22;5078128;28;20198;-66
2021/07/05 06:50:57;;;;;;;15.77;7.77;;;;;;;24.20;42.07;94542.44;5088320;28;20211;-68
2021/07/05 06:53:24;;;;;;;10.70;7.80;;;;;;;24.44;41.86;94547.56;5090717;28;20210;-67
2021/07/05 06:55:50;;;;;;;10.63;7.40;;;;;;;24.59;42.79;94529.88;5089972;28;20289;-66
2021/07/05 06:58:17;;;;;;;10.13;8.17;;;;;;;24.53;42.11;94533.94;5081140;28;20576;-68
2021/07/05 07:00:45;;;;;;;8.73;7.50;;;;;;;24.59;41.33;94533.34;5070768;28;20211;-67
2021/07/05 07:03:12;;;;;;;13.73;8.20;;;;;;;24.64;41.28;94540.31;5088569;28;20184;-66
2021/07/05 07:05:39;;;;;;;13.57;7.10;;;;;;;24.75;40.47;94530.59;5087894;28;20234;-66
2021/07/05 07:08:06;;;;;;;12.97;7.47;;;;;;;24.71;41.18;94535.13;5093631;28;20198;-69
2021/07/05 07:10:33;;;;;;;13.40;8.00;;;;;;;24.88;40.03;94522.06;5093266;28;20223;-66
2021/07/05 07:13:00;;;;;;;10.77;6.90;;;;;;;24.93;39.55;94531.72;5074279;28;20197;-67
2021/07/05 07:15:48;;;;;;;12.23;7.27;;;;;;;24.83;39.28;94532.31;5070357;28;20226;-69
2021/07/05 07:20:42;;;;;;;12.50;7.43;;;;;;;24.82;38.62;94526.16;5090006;28;20212;-67
2021/07/05 07:23:09;;;;;;;9.57;7.40;;;;;;;24.80;38.86;94512.34;5090126;28;20207;-67
2021/07/05 07:25:36;;;;;;;13.30;6.87;;;;;;;24.87;38.76;94522.44;5089213;28;20319;-67
2021/07/05 07:28:03;;;;;;;8.87;7.03;;;;;;;24.96;38.98;94520.31;5089821;28;20222;-68
2021/07/05 07:30:33;;;;;;;8.40;6.83;;;;;;;25.04;39.09;94519.28;5089595;28;20601;-66
2021/07/05 07:33:00;;;;;;;9.20;7.00;;;;;;;25.21;41.08;94526.91;5074243;28;20219;-68
2021/07/05 07:35:27;;;;;;;12.40;6.77;;;;;;;25.22;40.87;94528.44;5089991;28;20636;-67
2021/07/05 07:37:54;;;;;;;14.97;7.63;;;;;;;25.34;40.63;94532.88;5089820;28;20759;-66
2021/07/05 07:40:24;;;;;;;10.53;6.53;;;;;;;25.66;39.93;94531.53;5087978;28;20195;-68
2021/07/05 07:42:51;;;;;;;8.57;6.53;;;;;;;25.70;39.23;94518.94;5077366;28;20209;-67
2021/07/05 07:45:19;;;;;;;13.93;7.93;;;;;;;25.71;38.76;94528.56;5075113;28;20331;-69
2021/07/05 07:47:47;;;;;;;11.07;7.93;;;;;;;25.85;38.28;94523.41;5089708;28;20366;-66
2021/07/05 07:50:16;;;;;;;17.03;7.37;;;;;;;26.07;37.92;94519.94;5089343;28;20207;-67
2021/07/05 07:52:43;;;;;;;10.77;7.87;;;;;;;26.02;38.68;94517.53;5089239;28;20195;-66
2021/07/05 07:55:13;;;;;;;11.57;6.90;;;;;;;26.19;36.88;94510.88;5089659;28;20199;-66
2021/07/05 07:57:41;;;;;;;10.17;6.70;;;;;;;26.36;37.40;94511.16;5090182;28;20282;-66
2021/07/05 08:00:15;;;;;;;15.93;7.97;;;;;;;26.32;37.65;94509.53;5089415;28;20202;-66
2021/07/05 08:02:44;;;;;;;10.57;7.30;;;;;;;26.24;39.75;94508.66;5075464;28;20679;-66
2021/07/05 08:05:12;;;;;;;10.47;7.77;;;;;;;26.48;39.23;94508.22;5079754;28;20196;-66
2021/07/05 08:07:42;;;;;;;13.07;8.03;;;;;;;26.30;37.66;94483.03;5085128;28;20191;-67
2021/07/05 08:10:12;;;;;;;13.47;8.33;;;;;;;26.76;38.79;94500.53;5081635;28;20198;-67
2021/07/05 08:12:41;;;;;;;16.57;8.07;;;;;;;26.66;38.13;94503.09;5091760;28;20211;-68
2021/07/05 08:15:09;;;;;;;17.67;8.93;;;;;;;26.78;38.12;94500.97;5080870;28;20195;-67
2021/07/05 08:17:37;;;;;;;15.70;9.07;;;;;;;27.12;38.38;94503.59;5093507;28;20203;-67
2021/07/05 08:20:05;;;;;;;17.60;9.23;;;;;;;27.02;37.84;94503.13;5084409;28;20237;-67
2021/07/05 08:22:33;;;;;;;13.57;8.43;;;;;;;27.17;38.95;94500.59;5092987;28;20551;-66
2021/07/05 08:25:04;;;;;;;12.30;8.27;;;;;;;27.43;37.60;94495.09;5092939;28;20572;-67
2021/07/05 08:27:33;;;;;;;12.47;8.63;;;;;;;27.26;38.12;94477.66;5093515;28;20282;-66
2021/07/05 08:30:03;;;;;;;15.53;8.83;;;;;;;27.37;37.66;94485.84;5092993;28;20199;-66
2021/07/05 08:32:30;;;;;;;13.37;8.43;;;;;;;27.74;37.97;94481.13;5092725;28;20258;-67
2021/07/05 08:34:57;;;;;;;19.77;9.23;;;;;;;27.61;37.44;94472.56;5091468;28;20205;-68
2021/07/05 08:37:24;;;;;;;17.57;7.90;;;;;;;27.59;38.01;94479.50;5087978;28;20257;-67
2021/07/05 08:39:51;;;;;;;18.90;8.93;;;;;;;28.19;36.73;94480.72;5084052;28;20187;-68
2021/07/05 08:42:22;;;;;;;16.30;8.90;;;;;;;28.08;35.72;94474.50;5090086;28;20215;-67
2021/07/05 08:44:49;;;;;;;11.57;9.10;;;;;;;28.23;35.30;94465.31;5072818;28;20204;-66
2021/07/05 08:47:17;;;;;;;11.83;8.47;;;;;;;28.36;36.38;94466.56;5086246;28;20197;-67
2021/07/05 08:49:48;;;;;;;15.30;8.57;;;;;;;28.72;35.39;94465.56;5081376;28;20269;-67
2021/07/05 08:52:17;;;;;;;14.00;8.27;;;;;;;28.95;34.11;94463.34;5078385;28;20219;-67
2021/07/05 08:54:44;;;;;;;15.67;9.67;;;;;;;28.73;35.11;94467.13;5092716;28;20217;-66
2021/07/05 08:57:26;;;;;;;13.67;8.53;;;;;;;28.71;35.38;94458.66;5092720;28;20206;-66
2021/07/05 08:59:57;;;;;;;11.17;9.00;;;;;;;28.76;34.54;94463.66;5084527;28;20249;-66
2021/07/05 09:02:24;;;;;;;13.93;8.33;;;;;;;29.03;35.15;94457.97;5073079;28;20203;-69
2021/07/05 09:04:51;;;;;;;11.73;8.27;;;;;;;28.85;34.13;94464.09;5085572;28;20208;-67
2021/07/05 09:07:18;;;;;;;13.77;8.30;;;;;;;28.98;34.65;94462.56;5085203;28;20198;-65
2021/07/05 09:09:58;;;;;;;15.10;7.83;;;;;;;29.32;35.78;94448.78;5091953;28;20206;-67
2021/07/05 09:12:26;;;;;;;13.60;7.67;;;;;;;28.95;33.00;94452.56;5092849;28;20304;-67
2021/07/05 09:15:09;;;;;;;10.30;7.13;;;;;;;28.98;33.50;94454.50;5091941;28;20665;-67
2021/07/05 09:17:40;;;;;;;9.33;5.63;;;;;;;28.81;32.61;94455.19;5092236;28;20195;-66
2021/07/05 09:20:13;;;;;;;10.60;6.10;;;;;;;29.32;33.26;94452.28;5090921;28;20605;-68
2021/07/05 09:23:11;;;;;;;10.30;5.00;;;;;;;29.76;32.89;94451.91;5091918;28;20198;-66
2021/07/05 09:25:41;;;;;;;10.00;4.03;;;;;;;29.63;31.26;94442.63;5088868;28;20213;-66
2021/07/05 09:28:09;;;;;;;5.07;4.00;;;;;;;29.84;31.86;94453.44;5092758;28;20652;-67
2021/07/05 09:30:42;;;;;;;8.93;4.57;;;;;;;29.82;30.93;94431.44;5091361;28;20210;-67
2021/07/05 09:33:24;;;;;;;5.80;4.40;;;;;;;30.14;31.25;94440.28;5092588;28;20202;-66
2021/07/05 09:35:59;;;;;;;8.10;4.47;;;;;;;30.02;30.59;94439.94;5091638;28;20207;-65
2021/07/05 09:38:35;;;;;;;5.47;4.43;;;;;;;29.39;31.29;94433.38;5079599;28;20203;-67
2021/07/05 09:41:26;;;;;;;12.00;5.07;;;;;;;30.11;32.46;94430.22;5078643;28;20226;-66
2021/07/05 09:44:00;;;;;;;11.23;5.30;;;;;;;29.91;30.64;94432.59;5090422;28;20202;-68
2021/07/05 09:46:43;;;;;;;8.97;4.90;;;;;;;29.62;30.92;94425.66;5082776;28;20215;-67
2021/07/05 09:49:31;;;;;;;8.13;4.77;;;;;;;29.67;30.89;94427.22;5075225;28;20196;-67
2021/07/05 09:52:14;;;;;;;8.53;4.80;;;;;;;29.75;30.84;94431.47;5072070;28;20231;-66
2021/07/05 09:54:49;;;;;;;8.13;4.90;;;;;;;29.62;31.32;94425.66;5078775;28;20191;-69
2021/07/05 10:00:17;;;;;;;7.10;5.07;;;;;;;29.73;31.01;94417.56;5083367;28;20183;-66
2021/07/05 10:03:14;;;;;;;7.60;5.27;;;;;;;29.73;31.96;94420.28;5089495;28;20185;-69
2021/07/05 10:05:47;;;;;;;8.67;5.60;;;;;;;29.61;32.65;94420.66;5087012;28;20290;-67
2021/07/05 10:08:16;;;;;;;11.13;5.40;;;;;;;29.70;31.78;94421.84;5078135;28;20279;-68
2021/07/05 10:10:45;;;;;;;6.57;5.53;;;;;;;29.77;32.09;94416.41;5091239;28;20203;-66
2021/07/05 10:13:17;;;;;;;8.40;5.03;;;;;;;29.87;32.53;94414.88;5071258;28;20200;-67
2021/07/05 10:15:49;;;;;;;5.73;4.83;;;;;;;30.36;32.56;94403.94;5083551;28;20203;-67
2021/07/05 10:18:17;;;;;;;5.97;4.80;;;;;;;30.32;30.79;94408.59;5085863;28;20275;-66
2021/07/05 10:20:46;;;;;;;6.63;4.50;;;;;;;30.61;31.13;94403.81;5088863;28;20187;-65
2021/07/05 10:23:15;;;;;;;7.97;5.77;;;;;;;30.61;31.44;94396.50;5092105;28;20207;-66
2021/07/05 10:25:44;;;;;;;6.93;5.27;;;;;;;30.32;32.23;94402.41;5091147;28;20211;-67
2021/07/05 10:28:12;;;;;;;9.13;5.20;;;;;;;30.59;32.43;94401.53;5090585;28;20724;-67
2021/07/05 10:30:40;;;;;;;9.47;5.53;;;;;;;31.12;31.46;94400.47;5090329;28;20594;-67
2021/07/05 10:33:08;;;;;;;11.97;6.03;;;;;;;30.95;30.96;94395.94;5091199;28;20191;-67
2021/07/05 10:35:45;;;;;;;7.87;5.77;;;;;;;31.10;31.52;94387.31;5090385;28;20278;-67
2021/07/05 10:38:16;;;;;;;6.47;5.83;;;;;;;31.42;32.12;94387.13;5071006;28;20200;-67
2021/07/05 10:40:47;;;;;;;8.23;5.23;;;;;;;31.68;30.57;94389.19;5088465;28;20190;-66
2021/07/05 10:43:23;;;;;;;11.00;5.67;;;;;;;31.56;30.76;94376.16;5079778;28;20196;-66
2021/07/05 10:46:00;;;;;;;9.63;8.77;;;;;;;31.70;30.12;94392.28;5088571;28;20191;-67
2021/07/05 10:48:42;;;;;;;8.53;7.63;;;;;;;31.73;30.50;94386.06;5078280;28;20241;-67
2021/07/05 10:51:11;;;;;;;9.00;5.90;;;;;;;31.78;30.32;94372.09;5075350;28;20211;-67
2021/07/05 10:53:40;;;;;;;9.93;5.63;;;;;;;31.43;30.96;94389.44;5077922;28;20223;-66
2021/07/05 10:56:36;;;;;;;10.13;5.23;;;;;;;31.27;30.18;94391.06;5070125;28;20608;-68
2021/07/05 10:59:12;;;;;;;9.87;5.13;;;;;;;30.83;30.19;94389.06;5070988;28;20200;-65
2021/07/05 11:01:42;;;;;;;9.40;5.30;;;;;;;30.62;30.98;94389.91;5090781;28;20209;-65
2021/07/05 11:04:19;;;;;;;9.43;5.80;;;;;;;31.21;30.82;94381.84;5073954;28;20614;-67
2021/07/05 11:06:47;;;;;;;8.40;5.23;;;;;;;31.38;30.63;94381.75;5079119;28;20199;-68
2021/07/05 11:09:20;;;;;;;7.43;5.23;;;;;;;31.69;30.46;94358.25;5074236;28;20187;-67
2021/07/05 11:11:50;;;;;;;10.43;5.23;;;;;;;31.40;29.99;94378.63;5078351;28;20237;-67
2021/07/05 11:14:32;;;;;;;6.03;4.73;;;;;;;31.79;28.92;94366.25;5088960;28;20207;-66
2021/07/05 11:17:14;;;;;;;11.37;4.87;;;;;;;32.19;29.66;94375.53;5068824;28;20191;-67
2021/07/05 11:19:42;;;;;;;5.13;4.63;;;;;;;31.22;29.55;94373.31;5078090;28;20282;-67
2021/07/05 11:22:27;;;;;;;7.23;4.77;;;;;;;31.60;30.94;94364.16;5089681;28;20196;-67
2021/07/05 11:24:58;;;;;;;6.30;4.20;;;;;;;31.46;30.26;94366.97;5089408;28;20264;-66
2021/07/05 11:27:33;;;;;;;5.00;4.50;;;;;;;31.51;30.21;94357.66;5090076;28;20573;-66
2021/07/05 11:30:27;;;;;;;5.17;4.13;;;;;;;31.79;30.20;94368.19;5089660;28;20672;-67
2021/07/05 11:32:59;;;;;;;7.30;4.20;;;;;;;32.07;28.87;94367.94;5092877;28;20247;-69
2021/07/05 11:35:38;;;;;;;10.60;4.03;;;;;;;32.30;29.56;94368.03;5089408;28;20187;-67
2021/07/05 11:38:25;;;;;;;9.47;4.73;;;;;;;32.44;28.85;94365.22;5085285;28;20195;-65
2021/07/05 11:41:00;;;;;;;10.37;3.90;;;;;;;32.27;29.37;94366.16;5069248;28;20188;-65
2021/07/05 11:43:52;;;;;;;10.23;3.77;;;;;;;31.73;30.12;94362.44;5082022;28;20194;-67
2021/07/05 11:46:28;;;;;;;4.73;4.23;;;;;;;31.88;29.81;94357.66;5069223;28;20535;-66